Aviation Digital Data Service (ADDS)

Output produced by TAFs form (1157 UTC 21 November 2014)
found at http://aviationweather.gov/adds/tafs/
 
KROW 211129Z 2112/2212 33005KT P6SM BKN250 
     FM212100 13006KT P6SM SCT120 
     FM220300 33005KT P6SM BKN100